Emmonak, Alaska
Current Conditions -  °F | °C
As of 8:16 PM on Monday 20 Oct 2014 (Local Time) from PAEM Reporting Station
Overcast Overcast  
Wind Chill: 20°   Ceiling: 7000
Heat Index: 30°   Visibility: 10mi
Dew Point: 25°   Wind: 14mph
Humidity: 80%   Direction: 340°NNW
Pressure: 29.28"   Gusts: NA
Location:  62.78°N, 164.53°W
Report Text: PAEM 210416Z 34012KT 10SM OVC070 M01/M04 A2928 RMK AO1
Loading
Personal Weather Stations






























Interactive Weather Map
Tropical Storm Tracking
New forecast layout! Learn more

10-Day Weather Forecast

Advertisements
Track Severe Weather on mobile